Time;durP1;ratioP1;P1;durP2;ratioP2;P2;SDS_P1;SDS_P2;PMS_P1;PMS_P2;Temp;Humidity;BMP_temperature;BMP_pressure;BME280_temperature;BME280_humidity;BME280_pressure;Samples;Min_cycle;Max_cycle;Signal;HPM_P1;HPM_P2
2022/03/16 00:00:24;;;;;;;32.83;23.83;;;;;;;;;;6307048;22;20000;-63
2022/03/16 00:02:50;;;;;;;26.20;18.07;;;;;;;;;;6306920;22;20003;-71
2022/03/16 00:05:16;;;;;;;26.67;20.97;;;;;;;;;;6306658;22;20429;-73
2022/03/16 00:07:43;;;;;;;27.93;19.87;;;;;;;;;;6306888;22;20307;-63
2022/03/16 00:10:09;;;;;;;30.60;20.73;;;;;;;;;;6307010;22;20002;-65
2022/03/16 00:12:36;;;;;;;25.37;19.33;;;;;;;;;;6306702;22;20499;-63
2022/03/16 00:15:03;;;;;;;23.03;18.87;;;;;;;;;;6306902;22;19996;-63
2022/03/16 00:17:29;;;;;;;26.03;19.07;;;;;;;;;;6306809;22;20410;-63
2022/03/16 00:19:55;;;;;;;25.90;18.50;;;;;;;;;;6306779;22;20383;-65
2022/03/16 00:22:21;;;;;;;29.57;21.70;;;;;;;;;;6306885;22;20004;-62
2022/03/16 00:24:47;;;;;;;33.63;21.93;;;;;;;;;;6307025;22;20282;-72
2022/03/16 00:27:13;;;;;;;26.57;21.37;;;;;;;;;;6306512;22;19999;-63
2022/03/16 00:29:39;;;;;;;22.53;18.70;;;;;;;;;;6306830;22;20034;-72
2022/03/16 00:32:06;;;;;;;24.93;18.50;;;;;;;;;;6306777;22;20003;-71
2022/03/16 00:34:32;;;;;;;29.17;19.90;;;;;;;;;;6306997;22;20008;-63
2022/03/16 00:36:59;;;;;;;25.10;18.80;;;;;;;;;;6307139;22;20011;-73
2022/03/16 00:39:25;;;;;;;35.73;23.33;;;;;;;;;;6306599;22;20031;-71
2022/03/16 00:41:51;;;;;;;35.30;25.57;;;;;;;;;;6306562;22;20034;-69
2022/03/16 00:44:17;;;;;;;38.90;25.77;;;;;;;;;;6307099;22;20003;-62
2022/03/16 00:46:43;;;;;;;46.37;29.10;;;;;;;;;;6306620;22;19999;-67
2022/03/16 00:49:09;;;;;;;53.97;30.67;;;;;;;;;;6306638;22;20026;-69
2022/03/16 00:51:35;;;;;;;40.40;26.77;;;;;;;;;;6306667;22;20003;-72
2022/03/16 00:54:01;;;;;;;28.93;22.40;;;;;;;;;;6306636;22;20358;-69
2022/03/16 00:56:27;;;;;;;29.60;19.83;;;;;;;;;;6306652;22;20010;-65
2022/03/16 00:58:53;;;;;;;26.80;20.23;;;;;;;;;;6307074;22;20307;-65
2022/03/16 01:01:19;;;;;;;25.53;20.80;;;;;;;;;;6306260;22;20418;-65
2022/03/16 01:03:45;;;;;;;26.93;20.80;;;;;;;;;;6306926;22;20575;-73
2022/03/16 01:06:15;;;;;;;26.37;20.60;;;;;;;;;;6308580;22;20357;-73
2022/03/16 01:08:44;;;;;;;23.97;19.53;;;;;;;;;;6308531;22;20043;-73
2022/03/16 01:11:13;;;;;;;27.47;19.67;;;;;;;;;;6308590;22;20006;-74
2022/03/16 01:13:40;;;;;;;24.93;18.73;;;;;;;;;;6308075;22;20009;-65
2022/03/16 01:16:06;;;;;;;26.30;17.97;;;;;;;;;;6308322;22;20045;-65
2022/03/16 01:18:32;;;;;;;24.33;15.63;;;;;;;;;;6308091;22;20003;-65
2022/03/16 01:20:58;;;;;;;18.33;15.80;;;;;;;;;;6308438;22;20422;-69
2022/03/16 01:23:24;;;;;;;24.53;16.67;;;;;;;;;;6308396;22;20003;-66
2022/03/16 01:25:50;;;;;;;24.53;17.97;;;;;;;;;;6308132;22;20003;-65
2022/03/16 01:28:16;;;;;;;18.23;16.23;;;;;;;;;;6308308;22;20018;-64
2022/03/16 01:30:45;;;;;;;17.63;15.83;;;;;;;;;;6308112;22;19999;-65
2022/03/16 01:33:11;;;;;;;19.30;17.10;;;;;;;;;;6308196;22;20007;-67
2022/03/16 01:35:37;;;;;;;19.20;16.20;;;;;;;;;;6307909;22;20049;-72
2022/03/16 01:38:03;;;;;;;20.70;17.23;;;;;;;;;;6308056;22;20069;-73
2022/03/16 01:40:29;;;;;;;19.63;16.13;;;;;;;;;;6307921;22;19995;-70
2022/03/16 01:42:55;;;;;;;19.53;16.87;;;;;;;;;;6307617;22;20090;-68
2022/03/16 01:45:21;;;;;;;18.70;16.70;;;;;;;;;;6308143;22;20030;-67
2022/03/16 01:47:47;;;;;;;17.57;15.53;;;;;;;;;;6307917;22;20003;-74
2022/03/16 01:50:13;;;;;;;18.07;16.27;;;;;;;;;;6308096;22;19999;-73
2022/03/16 01:52:39;;;;;;;24.53;17.17;;;;;;;;;;6308170;22;20035;-71
2022/03/16 01:55:06;;;;;;;19.00;15.97;;;;;;;;;;6308364;22;20030;-62
2022/03/16 01:57:35;;;;;;;20.97;17.17;;;;;;;;;;6307329;22;20004;-64
2022/03/16 02:00:06;;;;;;;17.90;16.00;;;;;;;;;;6304664;22;20010;-66
2022/03/16 02:02:33;;;;;;;20.90;16.37;;;;;;;;;;6304554;22;20034;-68
2022/03/16 02:04:59;;;;;;;17.60;15.67;;;;;;;;;;6306170;22;20006;-64
2022/03/16 02:07:25;;;;;;;21.03;16.90;;;;;;;;;;6307827;22;20004;-68
2022/03/16 02:09:52;;;;;;;18.50;16.50;;;;;;;;;;6308051;22;20413;-68
2022/03/16 02:12:18;;;;;;;21.97;16.37;;;;;;;;;;6307935;22;20034;-74
2022/03/16 02:14:44;;;;;;;19.20;17.17;;;;;;;;;;6306983;22;19999;-73
2022/03/16 02:17:10;;;;;;;22.70;16.13;;;;;;;;;;6307869;22;19999;-74
2022/03/16 02:19:36;;;;;;;18.83;16.90;;;;;;;;;;6307809;22;19996;-73
2022/03/16 02:22:04;;;;;;;19.97;17.07;;;;;;;;;;6307508;22;20078;-65
2022/03/16 02:24:30;;;;;;;19.40;17.30;;;;;;;;;;6307712;22;20414;-72
2022/03/16 02:26:56;;;;;;;21.30;17.53;;;;;;;;;;6307370;22;20003;-64
2022/03/16 02:29:23;;;;;;;21.63;19.33;;;;;;;;;;6307505;22;20050;-64
2022/03/16 02:31:49;;;;;;;24.07;19.43;;;;;;;;;;6307776;22;20117;-74
2022/03/16 02:34:15;;;;;;;25.47;20.03;;;;;;;;;;6307534;22;20010;-71
2022/03/16 02:36:41;;;;;;;27.87;21.63;;;;;;;;;;6306801;22;20499;-65
2022/03/16 02:39:07;;;;;;;25.70;21.33;;;;;;;;;;6307321;22;20056;-65
2022/03/16 02:41:33;;;;;;;25.07;21.47;;;;;;;;;;6307377;22;20011;-65
2022/03/16 02:43:59;;;;;;;27.83;22.53;;;;;;;;;;6307124;22;20042;-73
2022/03/16 02:46:25;;;;;;;27.73;23.10;;;;;;;;;;6307312;22;20006;-70
2022/03/16 02:48:51;;;;;;;28.00;23.07;;;;;;;;;;6306923;22;20011;-73
2022/03/16 02:51:17;;;;;;;36.67;25.33;;;;;;;;;;6307277;22;20003;-74
2022/03/16 02:53:44;;;;;;;29.80;24.67;;;;;;;;;;6307598;22;20010;-72
2022/03/16 02:56:11;;;;;;;27.77;23.90;;;;;;;;;;6306893;22;19999;-73
2022/03/16 02:58:37;;;;;;;33.93;26.03;;;;;;;;;;6307052;22;20049;-65
2022/03/16 03:01:04;;;;;;;30.80;24.67;;;;;;;;;;6307247;22;19995;-75
2022/03/16 03:03:30;;;;;;;30.20;24.63;;;;;;;;;;6307401;22;19999;-76
2022/03/16 03:05:56;;;;;;;35.40;25.87;;;;;;;;;;6307672;22;20051;-75
2022/03/16 03:08:22;;;;;;;29.23;26.03;;;;;;;;;;6307335;22;20022;-65
2022/03/16 03:10:49;;;;;;;30.27;24.47;;;;;;;;;;6307183;22;20005;-65
2022/03/16 03:13:15;;;;;;;32.93;25.10;;;;;;;;;;6307276;22;20007;-70
2022/03/16 03:15:42;;;;;;;31.27;25.97;;;;;;;;;;6307285;22;20111;-65
2022/03/16 03:18:08;;;;;;;32.97;27.03;;;;;;;;;;6306996;22;20022;-65
2022/03/16 03:20:34;;;;;;;32.17;27.87;;;;;;;;;;6307083;22;20006;-64
2022/03/16 03:23:00;;;;;;;32.87;28.17;;;;;;;;;;6307326;22;19991;-74
2022/03/16 03:25:27;;;;;;;34.50;29.10;;;;;;;;;;6306574;22;20426;-73
2022/03/16 03:27:53;;;;;;;37.87;30.00;;;;;;;;;;6307241;22;20329;-64
2022/03/16 03:30:19;;;;;;;34.87;29.73;;;;;;;;;;6307180;22;20023;-71
2022/03/16 03:32:45;;;;;;;35.00;29.87;;;;;;;;;;6307272;22;19995;-69
2022/03/16 03:35:11;;;;;;;32.60;27.73;;;;;;;;;;6307206;22;19999;-65
2022/03/16 03:37:37;;;;;;;38.70;29.97;;;;;;;;;;6307115;22;19995;-74
2022/03/16 03:40:04;;;;;;;36.17;29.77;;;;;;;;;;6307056;22;20003;-65
2022/03/16 03:42:30;;;;;;;33.57;29.33;;;;;;;;;;6306640;22;20442;-74
2022/03/16 03:44:56;;;;;;;37.77;30.63;;;;;;;;;;6306912;22;20004;-74
2022/03/16 03:47:22;;;;;;;36.07;31.23;;;;;;;;;;6306709;22;20069;-65
2022/03/16 03:49:48;;;;;;;40.40;30.90;;;;;;;;;;6306938;22;20018;-65
2022/03/16 03:52:14;;;;;;;39.77;31.53;;;;;;;;;;6306866;22;20000;-74
2022/03/16 03:54:40;;;;;;;38.67;31.60;;;;;;;;;;6307016;22;20087;-75
2022/03/16 03:57:06;;;;;;;36.87;30.57;;;;;;;;;;6306889;22;20456;-65
2022/03/16 03:59:32;;;;;;;35.87;30.37;;;;;;;;;;6306586;22;20329;-74
2022/03/16 04:01:59;;;;;;;35.77;30.87;;;;;;;;;;6306536;22;20003;-75
2022/03/16 04:04:25;;;;;;;34.10;28.77;;;;;;;;;;6306757;22;20008;-76
2022/03/16 04:06:51;;;;;;;36.53;30.97;;;;;;;;;;6306896;22;20004;-70
2022/03/16 04:09:17;;;;;;;33.30;28.90;;;;;;;;;;6306778;22;20036;-65
2022/03/16 04:11:43;;;;;;;38.00;29.87;;;;;;;;;;6307040;22;20452;-65
2022/03/16 04:14:10;;;;;;;32.73;29.17;;;;;;;;;;6307088;22;20433;-64
2022/03/16 04:16:36;;;;;;;35.77;31.87;;;;;;;;;;6307124;22;20030;-74
2022/03/16 04:19:02;;;;;;;38.00;31.73;;;;;;;;;;6306995;22;19999;-64
2022/03/16 04:21:28;;;;;;;37.93;33.03;;;;;;;;;;6306907;22;20004;-74
2022/03/16 04:23:54;;;;;;;36.00;31.30;;;;;;;;;;6306754;22;19999;-65
2022/03/16 04:26:20;;;;;;;39.10;31.67;;;;;;;;;;6306820;22;20046;-74
2022/03/16 04:28:47;;;;;;;38.83;32.50;;;;;;;;;;6306963;22;20090;-75
2022/03/16 04:31:13;;;;;;;37.93;31.43;;;;;;;;;;6306499;22;20003;-73
2022/03/16 04:33:39;;;;;;;39.00;31.70;;;;;;;;;;6306873;22;20049;-72
2022/03/16 04:36:05;;;;;;;39.50;31.77;;;;;;;;;;6306919;22;20053;-65
2022/03/16 04:38:31;;;;;;;37.57;33.47;;;;;;;;;;6307880;22;20018;-65
2022/03/16 04:40:57;;;;;;;38.93;31.87;;;;;;;;;;6308531;22;20012;-74
2022/03/16 04:43:24;;;;;;;41.17;32.63;;;;;;;;;;6308477;22;20048;-65
2022/03/16 04:45:50;;;;;;;38.63;32.67;;;;;;;;;;6308458;22;20000;-76
2022/03/16 04:48:16;;;;;;;37.77;31.23;;;;;;;;;;6308511;22;20008;-73
2022/03/16 04:50:42;;;;;;;38.93;33.63;;;;;;;;;;6308470;22;20007;-64
2022/03/16 04:53:09;;;;;;;38.27;33.33;;;;;;;;;;6308595;22;20007;-65
2022/03/16 04:55:36;;;;;;;45.07;34.60;;;;;;;;;;6308517;22;19995;-65
2022/03/16 04:58:07;;;;;;;40.77;33.80;;;;;;;;;;6308372;22;20011;-65
2022/03/16 05:00:35;;;;;;;42.07;34.83;;;;;;;;;;6308183;22;19995;-64
2022/03/16 05:03:01;;;;;;;36.40;31.50;;;;;;;;;;6308470;22;20411;-64
2022/03/16 05:05:28;;;;;;;41.00;34.27;;;;;;;;;;6308257;22;20434;-65
2022/03/16 05:07:55;;;;;;;37.77;33.70;;;;;;;;;;6308494;22;20065;-65
2022/03/16 05:10:21;;;;;;;36.20;30.73;;;;;;;;;;6308467;22;20049;-65
2022/03/16 05:12:47;;;;;;;35.97;29.97;;;;;;;;;;6308360;22;20011;-75
2022/03/16 05:15:14;;;;;;;38.93;31.47;;;;;;;;;;6308599;22;19999;-74
2022/03/16 05:17:40;;;;;;;33.60;29.93;;;;;;;;;;6308332;22;20006;-75
2022/03/16 05:20:07;;;;;;;33.23;28.90;;;;;;;;;;6308279;22;20003;-74
2022/03/16 05:22:40;;;;;;;29.87;26.53;;;;;;;;;;6307992;22;20070;-74
2022/03/16 05:25:06;;;;;;;33.23;27.67;;;;;;;;;;6308258;22;20000;-75
2022/03/16 05:27:32;;;;;;;32.23;28.33;;;;;;;;;;6308464;22;20330;-64
2022/03/16 05:29:58;;;;;;;36.67;31.10;;;;;;;;;;6308178;22;20014;-64
2022/03/16 05:32:24;;;;;;;37.07;31.50;;;;;;;;;;6307907;22;19995;-64
2022/03/16 05:34:50;;;;;;;37.70;32.33;;;;;;;;;;6308101;22;20344;-73
2022/03/16 05:37:16;;;;;;;43.87;33.90;;;;;;;;;;6308176;22;20004;-66
2022/03/16 05:39:42;;;;;;;44.43;33.63;;;;;;;;;;6308069;22;20379;-73
2022/03/16 05:42:08;;;;;;;40.40;34.73;;;;;;;;;;6307982;22;20083;-74
2022/03/16 05:44:34;;;;;;;44.23;34.37;;;;;;;;;;6308171;22;19999;-73
2022/03/16 05:47:00;;;;;;;44.53;35.30;;;;;;;;;;6307859;22;20341;-71
2022/03/16 05:49:28;;;;;;;48.43;37.47;;;;;;;;;;6307523;22;20018;-72
2022/03/16 05:51:54;;;;;;;46.17;37.43;;;;;;;;;;6308286;22;20323;-64
2022/03/16 05:54:21;;;;;;;43.97;36.93;;;;;;;;;;6307977;22;20169;-65
2022/03/16 05:56:47;;;;;;;44.50;35.90;;;;;;;;;;6307774;22;20002;-73
2022/03/16 05:59:13;;;;;;;43.23;35.33;;;;;;;;;;6307846;22;19995;-71
2022/03/16 06:01:39;;;;;;;45.33;37.23;;;;;;;;;;6308148;22;20003;-74
2022/03/16 06:04:05;;;;;;;46.27;37.83;;;;;;;;;;6307781;22;19999;-73
2022/03/16 06:06:31;;;;;;;43.00;36.23;;;;;;;;;;6308070;22;20030;-65
2022/03/16 06:08:57;;;;;;;50.90;38.20;;;;;;;;;;6308252;22;20057;-73
2022/03/16 06:11:24;;;;;;;45.43;36.80;;;;;;;;;;6308106;22;20000;-73
2022/03/16 06:13:50;;;;;;;47.17;37.37;;;;;;;;;;6308097;22;20016;-73
2022/03/16 06:16:16;;;;;;;44.30;36.83;;;;;;;;;;6307893;22;19999;-73
2022/03/16 06:18:42;;;;;;;45.07;37.30;;;;;;;;;;6307955;22;20421;-73
2022/03/16 06:21:08;;;;;;;51.17;37.97;;;;;;;;;;6307676;22;20006;-66
2022/03/16 06:23:35;;;;;;;43.67;37.67;;;;;;;;;;6307588;22;20082;-64
2022/03/16 06:26:04;;;;;;;47.30;36.83;;;;;;;;;;6307461;22;20429;-65
2022/03/16 06:28:31;;;;;;;44.90;37.93;;;;;;;;;;6307343;22;20017;-66
2022/03/16 06:30:57;;;;;;;49.57;38.27;;;;;;;;;;6307302;22;20046;-64
2022/03/16 06:33:23;;;;;;;40.30;34.27;;;;;;;;;;6307483;22;19992;-64
2022/03/16 06:35:49;;;;;;;45.47;36.60;;;;;;;;;;6307120;22;20074;-73
2022/03/16 06:38:15;;;;;;;45.23;35.40;;;;;;;;;;6307394;22;19995;-65
2022/03/16 06:40:41;;;;;;;39.80;34.30;;;;;;;;;;6307387;22;20010;-62
2022/03/16 06:43:07;;;;;;;42.80;36.50;;;;;;;;;;6307578;22;20003;-65
2022/03/16 06:45:33;;;;;;;43.13;35.17;;;;;;;;;;6307688;22;20015;-72
2022/03/16 06:48:00;;;;;;;47.00;35.87;;;;;;;;;;6307300;22;19999;-65
2022/03/16 06:50:27;;;;;;;48.87;37.40;;;;;;;;;;6307874;22;20003;-73
2022/03/16 06:52:54;;;;;;;49.03;39.70;;;;;;;;;;6307428;22;20011;-64
2022/03/16 06:55:20;;;;;;;52.20;39.57;;;;;;;;;;6307444;22;20002;-73
2022/03/16 06:57:46;;;;;;;46.53;37.50;;;;;;;;;;6307168;22;19995;-62
2022/03/16 07:00:13;;;;;;;50.00;39.20;;;;;;;;;;6307280;22;20007;-64
2022/03/16 07:02:53;;;;;;;49.27;38.70;;;;;;;;;;6307198;22;20102;-64
2022/03/16 07:05:20;;;;;;;47.27;37.87;;;;;;;;;;6307174;22;20089;-65
2022/03/16 07:07:46;;;;;;;45.63;36.70;;;;;;;;;;6306241;22;20003;-64
2022/03/16 07:10:12;;;;;;;50.43;38.47;;;;;;;;;;6306639;22;20003;-63
2022/03/16 07:12:38;;;;;;;51.33;38.40;;;;;;;;;;6306551;22;20092;-63
2022/03/16 07:15:06;;;;;;;48.07;37.67;;;;;;;;;;6306324;22;20429;-67
2022/03/16 07:17:32;;;;;;;43.30;35.53;;;;;;;;;;6306278;22;20355;-63
2022/03/16 07:19:58;;;;;;;45.57;33.93;;;;;;;;;;6306368;22;19995;-61
2022/03/16 07:22:24;;;;;;;41.03;35.80;;;;;;;;;;6306831;22;20111;-61
2022/03/16 07:24:50;;;;;;;43.70;36.00;;;;;;;;;;6305826;22;20082;-63
2022/03/16 07:27:16;;;;;;;46.93;34.70;;;;;;;;;;6306836;22;19999;-63
2022/03/16 07:29:42;;;;;;;45.50;35.73;;;;;;;;;;6307104;22;20495;-70
2022/03/16 07:32:08;;;;;;;43.13;35.30;;;;;;;;;;6306421;22;20022;-64
2022/03/16 07:34:35;;;;;;;46.53;35.33;;;;;;;;;;6307202;22;20033;-70
2022/03/16 07:37:01;;;;;;;40.97;33.90;;;;;;;;;;6305036;22;19999;-64
2022/03/16 07:39:27;;;;;;;41.87;34.53;;;;;;;;;;6306715;22;20003;-67
2022/03/16 07:41:53;;;;;;;38.37;34.07;;;;;;;;;;6306336;22;20026;-72
2022/03/16 07:44:19;;;;;;;43.13;33.73;;;;;;;;;;6305902;22;20057;-71
2022/03/16 07:46:45;;;;;;;41.80;33.93;;;;;;;;;;6274801;22;20445;-68
2022/03/16 07:49:11;;;;;;;42.27;32.93;;;;;;;;;;6275544;22;20026;-68
2022/03/16 07:51:38;;;;;;;38.13;32.30;;;;;;;;;;6275904;22;20020;-70
2022/03/16 07:54:04;;;;;;;40.83;31.37;;;;;;;;;;6275814;22;20006;-69
2022/03/16 07:56:30;;;;;;;40.80;33.23;;;;;;;;;;6275734;22;20003;-67
2022/03/16 07:59:01;;;;;;;39.40;32.20;;;;;;;;;;6275698;22;20034;-67
2022/03/16 08:01:27;;;;;;;40.23;31.77;;;;;;;;;;6275975;22;20004;-71
2022/03/16 08:03:54;;;;;;;38.33;30.87;;;;;;;;;;6275830;22;20004;-70
2022/03/16 08:06:20;;;;;;;41.33;31.97;;;;;;;;;;6275847;22;19999;-68
2022/03/16 08:08:46;;;;;;;38.17;30.20;;;;;;;;;;6275657;22;20016;-68
2022/03/16 08:11:12;;;;;;;39.03;31.70;;;;;;;;;;6275787;22;20000;-67
2022/03/16 08:13:38;;;;;;;39.63;31.03;;;;;;;;;;6276845;22;20003;-72
2022/03/16 08:16:05;;;;;;;39.67;34.07;;;;;;;;;;6277529;22;20015;-64
2022/03/16 08:18:31;;;;;;;48.10;36.23;;;;;;;;;;6277913;22;20498;-62
2022/03/16 08:20:57;;;;;;;47.20;36.30;;;;;;;;;;6278019;22;20088;-63
2022/03/16 08:23:24;;;;;;;42.70;35.27;;;;;;;;;;6278258;22;20445;-63
2022/03/16 08:25:50;;;;;;;43.23;35.07;;;;;;;;;;6278215;22;20500;-64
2022/03/16 08:28:16;;;;;;;33.60;29.17;;;;;;;;;;6277504;22;20339;-68
2022/03/16 08:30:42;;;;;;;38.30;28.30;;;;;;;;;;6277466;22;20020;-63
2022/03/16 08:33:08;;;;;;;36.87;28.20;;;;;;;;;;6277151;22;19996;-66
2022/03/16 08:35:34;;;;;;;35.87;29.43;;;;;;;;;;6277993;22;20004;-66
2022/03/16 08:38:00;;;;;;;39.10;31.07;;;;;;;;;;6278189;22;20087;-69
2022/03/16 08:40:26;;;;;;;35.87;30.23;;;;;;;;;;6277671;22;20057;-64
2022/03/16 08:42:52;;;;;;;36.90;30.17;;;;;;;;;;6277603;22;20369;-66
2022/03/16 08:45:19;;;;;;;37.67;31.23;;;;;;;;;;6277420;22;20008;-65
2022/03/16 08:47:45;;;;;;;41.03;30.80;;;;;;;;;;6277134;22;20008;-66
2022/03/16 08:50:11;;;;;;;34.73;29.40;;;;;;;;;;6276214;22;19996;-66
2022/03/16 08:52:38;;;;;;;34.83;30.00;;;;;;;;;;6277901;22;20004;-65
2022/03/16 08:55:05;;;;;;;39.70;31.87;;;;;;;;;;6277839;22;19996;-65
2022/03/16 08:57:31;;;;;;;44.20;32.33;;;;;;;;;;6278340;22;20011;-65
2022/03/16 08:59:57;;;;;;;37.70;30.53;;;;;;;;;;6278345;22;20042;-65
2022/03/16 09:02:23;;;;;;;37.90;30.83;;;;;;;;;;6277849;22;20010;-65
2022/03/16 09:04:50;;;;;;;41.83;34.90;;;;;;;;;;6276041;22;20004;-65
2022/03/16 09:07:17;;;;;;;54.13;39.43;;;;;;;;;;6277091;22;20016;-65
2022/03/16 09:09:43;;;;;;;44.37;37.80;;;;;;;;;;6277883;22;20015;-65
2022/03/16 09:12:11;;;;;;;43.97;38.67;;;;;;;;;;6278026;22;20393;-65
2022/03/16 09:14:37;;;;;;;47.93;38.57;;;;;;;;;;6277648;22;20006;-65
2022/03/16 09:17:03;;;;;;;50.30;37.03;;;;;;;;;;6277786;22;20022;-65
2022/03/16 09:19:29;;;;;;;48.17;38.77;;;;;;;;;;6278049;22;20027;-65
2022/03/16 09:21:55;;;;;;;45.23;38.23;;;;;;;;;;6277722;22;20018;-65
2022/03/16 09:24:24;;;;;;;52.23;39.03;;;;;;;;;;6277089;22;20000;-65
2022/03/16 09:26:50;;;;;;;52.57;37.40;;;;;;;;;;6277721;22;20003;-65
2022/03/16 09:29:18;;;;;;;48.87;36.43;;;;;;;;;;6278029;22;20023;-65
2022/03/16 09:31:44;;;;;;;48.60;36.20;;;;;;;;;;6277884;22;20000;-67
2022/03/16 09:34:10;;;;;;;52.13;40.83;;;;;;;;;;6277690;22;20365;-65
2022/03/16 09:36:37;;;;;;;53.50;40.70;;;;;;;;;;6277697;22;19996;-65
2022/03/16 09:39:03;;;;;;;51.97;38.10;;;;;;;;;;6277383;22;20304;-64
2022/03/16 09:41:30;;;;;;;41.40;29.83;;;;;;;;;;6277540;22;20012;-65
2022/03/16 09:43:56;;;;;;;54.03;28.40;;;;;;;;;;6277587;22;20089;-66
2022/03/16 09:46:26;;;;;;;50.40;29.45;;;;;;;;;;6277612;22;20003;-65
2022/03/16 09:48:52;;;;;;;45.50;31.03;;;;;;;;;;6277892;22;20342;-65
2022/03/16 09:51:19;;;;;;;37.83;28.87;;;;;;;;;;6277629;22;20027;-65
2022/03/16 09:53:46;;;;;;;42.57;28.80;;;;;;;;;;6277834;22;20418;-65
2022/03/16 09:56:12;;;;;;;41.40;28.40;;;;;;;;;;6277748;22;20024;-65
2022/03/16 09:58:38;;;;;;;42.65;31.05;;;;;;;;;;6277258;22;20453;-65
2022/03/16 10:01:05;;;;;;;41.07;30.03;;;;;;;;;;6277510;22;20000;-65
2022/03/16 10:03:31;;;;;;;36.70;29.17;;;;;;;;;;6277330;22;20025;-65
2022/03/16 10:05:58;;;;;;;42.97;27.88;;;;;;;;;;6277538;22;20000;-65
2022/03/16 10:08:28;;;;;;;37.38;25.80;;;;;;;;;;6277264;22;20085;-65
2022/03/16 10:14:11;;;;;;;41.42;27.02;;;;;;;;;;6266746;22;20015;-65
2022/03/16 10:19:24;;;;;;;39.17;25.02;;;;;;;;;;6277808;22;20015;-68
2022/03/16 10:21:58;;;;;;;43.22;23.60;;;;;;;;;;6277487;22;20031;-68
2022/03/16 10:24:29;;;;;;;31.65;24.52;;;;;;;;;;6277212;22;20094;-65
2022/03/16 10:26:58;;;;;;;38.47;29.23;;;;;;;;;;6277603;22;20314;-65
2022/03/16 10:29:26;;;;;;;31.98;23.08;;;;;;;;;;6277214;22;20023;-65
2022/03/16 10:32:02;;;;;;;32.47;24.90;;;;;;;;;;6277683;22;20353;-67
2022/03/16 10:34:28;;;;;;;29.83;21.55;;;;;;;;;;6277728;22;20006;-64
2022/03/16 10:36:54;;;;;;;31.60;19.23;;;;;;;;;;6277609;22;20000;-65
2022/03/16 10:39:32;;;;;;;27.25;20.05;;;;;;;;;;6277129;22;20007;-65
2022/03/16 10:47:49;;;;;;;26.70;20.90;;;;;;;;;;6276779;22;20018;-65
2022/03/16 10:50:15;;;;;;;25.10;19.85;;;;;;;;;;6277180;22;20083;-65
2022/03/16 10:52:44;;;;;;;46.08;32.60;;;;;;;;;;6276597;22;20077;-64
2022/03/16 10:55:10;;;;;;;36.65;25.92;;;;;;;;;;6276903;22;20433;-64
2022/03/16 10:57:38;;;;;;;26.88;19.65;;;;;;;;;;6276876;22;19996;-64
2022/03/16 11:00:04;;;;;;;29.42;20.15;;;;;;;;;;6276640;22;20010;-64
2022/03/16 11:02:34;;;;;;;24.92;18.67;;;;;;;;;;6276572;22;20004;-65
2022/03/16 11:05:00;;;;;;;25.75;18.23;;;;;;;;;;6276727;22;20000;-65
2022/03/16 11:07:27;;;;;;;29.17;18.98;;;;;;;;;;6277040;22;20087;-65
2022/03/16 11:09:53;;;;;;;34.60;18.40;;;;;;;;;;6276730;22;20012;-64
2022/03/16 11:15:07;;;;;;;27.58;17.10;;;;;;;;;;6276435;22;20019;-66
2022/03/16 11:17:37;;;;;;;25.33;17.65;;;;;;;;;;6276591;22;20062;-64
2022/03/16 11:20:04;;;;;;;26.80;18.50;;;;;;;;;;6276617;22;20011;-67
2022/03/16 11:22:36;;;;;;;24.40;16.60;;;;;;;;;;6276645;22;20010;-67
2022/03/16 11:25:10;;;;;;;22.20;17.88;;;;;;;;;;6276508;22;20092;-65
2022/03/16 11:27:40;;;;;;;20.20;14.27;;;;;;;;;;6276356;22;20010;-65
2022/03/16 11:30:12;;;;;;;23.55;14.05;;;;;;;;;;6276524;22;20007;-65
2022/03/16 11:32:40;;;;;;;18.08;14.95;;;;;;;;;;6276314;22;20006;-68
2022/03/16 11:35:14;;;;;;;20.77;15.07;;;;;;;;;;6276376;22;20025;-65
2022/03/16 11:37:45;;;;;;;20.83;14.70;;;;;;;;;;6276127;22;20002;-64
2022/03/16 11:40:29;;;;;;;21.27;14.20;;;;;;;;;;6276297;22;20334;-65
2022/03/16 11:43:05;;;;;;;23.02;14.48;;;;;;;;;;6275719;22;20091;-63
2022/03/16 11:45:31;;;;;;;20.13;15.18;;;;;;;;;;6276359;22;20035;-64
2022/03/16 11:47:57;;;;;;;23.25;15.02;;;;;;;;;;6276076;22;20035;-68
2022/03/16 11:50:23;;;;;;;19.17;14.70;;;;;;;;;;6276134;22;19999;-65
2022/03/16 11:52:58;;;;;;;22.23;16.48;;;;;;;;;;6276184;22;20065;-64
2022/03/16 11:55:46;;;;;;;21.70;14.40;;;;;;;;;;6275476;22;20007;-64
2022/03/16 11:58:16;;;;;;;22.05;15.05;;;;;;;;;;6276213;22;20374;-66
2022/03/16 12:00:44;;;;;;;23.90;15.80;;;;;;;;;;6276162;22;20000;-65
2022/03/16 12:03:20;;;;;;;22.35;15.52;;;;;;;;;;6276352;22;20022;-64
2022/03/16 12:05:59;;;;;;;19.77;15.27;;;;;;;;;;6276156;22;19996;-64
2022/03/16 12:08:32;;;;;;;20.50;16.00;;;;;;;;;;6276212;22;20011;-66
2022/03/16 12:13:44;;;;;;;23.92;16.70;;;;;;;;;;6275976;22;20031;-66
2022/03/16 12:16:12;;;;;;;23.70;15.77;;;;;;;;;;6275616;22;20438;-66
2022/03/16 12:18:41;;;;;;;23.25;17.60;;;;;;;;;;6276248;22;20031;-66
2022/03/16 12:21:10;;;;;;;22.00;17.23;;;;;;;;;;6276599;22;20004;-66
2022/03/16 12:23:39;;;;;;;23.08;17.08;;;;;;;;;;6276552;22;20414;-69
2022/03/16 12:26:05;;;;;;;21.63;17.10;;;;;;;;;;6275183;22;20007;-69
2022/03/16 12:31:18;;;;;;;23.23;19.00;;;;;;;;;;6275788;22;20065;-67
2022/03/16 12:33:46;;;;;;;24.73;17.65;;;;;;;;;;6276112;22;20012;-66
2022/03/16 12:36:16;;;;;;;25.77;18.10;;;;;;;;;;6276435;22;20043;-66
2022/03/16 12:38:47;;;;;;;21.13;17.40;;;;;;;;;;6275901;22;19995;-66
2022/03/16 12:44:03;;;;;;;24.08;18.13;;;;;;;;;;6275961;22;20046;-67
2022/03/16 12:46:38;;;;;;;26.95;17.55;;;;;;;;;;6275728;22;20331;-66
2022/03/16 12:49:05;;;;;;;23.17;18.50;;;;;;;;;;6275663;22;20429;-67
2022/03/16 12:51:39;;;;;;;25.83;18.50;;;;;;;;;;6275559;22;20003;-67
2022/03/16 12:54:05;;;;;;;24.73;18.17;;;;;;;;;;6276071;22;20004;-67
2022/03/16 12:56:32;;;;;;;27.25;18.15;;;;;;;;;;6276060;22;20012;-67
2022/03/16 12:58:58;;;;;;;28.85;19.45;;;;;;;;;;6276851;22;20007;-67
2022/03/16 13:01:25;;;;;;;25.85;17.98;;;;;;;;;;6277802;22;20070;-66
2022/03/16 13:04:01;;;;;;;23.70;17.85;;;;;;;;;;6277918;22;20426;-66
2022/03/16 13:06:32;;;;;;;25.60;19.38;;;;;;;;;;6277065;22;20003;-66
2022/03/16 13:08:58;;;;;;;22.67;19.50;;;;;;;;;;6275490;22;20016;-65
2022/03/16 13:11:25;;;;;;;28.73;20.48;;;;;;;;;;6274682;22;20000;-66
2022/03/16 13:14:07;;;;;;;28.25;20.98;;;;;;;;;;6273402;22;20430;-65
2022/03/16 13:16:36;;;;;;;29.73;20.63;;;;;;;;;;6274208;22;20000;-66
2022/03/16 13:19:07;;;;;;;30.25;19.95;;;;;;;;;;6275728;22;20418;-68
2022/03/16 13:21:34;;;;;;;36.50;24.05;;;;;;;;;;6276863;22;20000;-66
2022/03/16 13:24:22;;;;;;;31.88;24.85;;;;;;;;;;6277648;22;19996;-68
2022/03/16 13:26:48;;;;;;;36.88;26.52;;;;;;;;;;6277307;22;20087;-69
2022/03/16 13:29:16;;;;;;;34.15;25.88;;;;;;;;;;6277107;22;20039;-69
2022/03/16 13:31:43;;;;;;;33.72;24.65;;;;;;;;;;6276240;22;19996;-66
2022/03/16 13:34:09;;;;;;;34.38;25.92;;;;;;;;;;6277007;22;20065;-66
2022/03/16 13:36:37;;;;;;;34.53;25.08;;;;;;;;;;6276095;22;20007;-69
2022/03/16 13:39:20;;;;;;;34.78;25.02;;;;;;;;;;6277104;22;20438;-66
2022/03/16 13:42:04;;;;;;;;;;;;;;;;;;6277369;22;20015;-67
2022/03/16 13:44:34;;;;;;;37.00;26.90;;;;;;;;;;6277155;22;19965;-67
2022/03/16 13:47:00;;;;;;;34.20;26.40;;;;;;;;;;6273484;22;20014;-67
2022/03/16 13:49:37;;;;;;;37.63;27.27;;;;;;;;;;6273842;22;20018;-67
2022/03/16 13:52:07;;;;;;;37.38;26.15;;;;;;;;;;6276883;22;20003;-68
2022/03/16 13:54:34;;;;;;;36.17;26.13;;;;;;;;;;6277276;22;20418;-68
2022/03/16 13:57:11;;;;;;;36.30;26.08;;;;;;;;;;6277553;22;20012;-67
2022/03/16 13:59:37;;;;;;;36.40;26.67;;;;;;;;;;6276915;22;20093;-66
2022/03/16 14:02:11;;;;;;;38.45;27.08;;;;;;;;;;6275774;22;19999;-65
2022/03/16 14:04:38;;;;;;;34.17;26.27;;;;;;;;;;6276180;22;20003;-66
2022/03/16 14:07:17;;;;;;;39.45;29.20;;;;;;;;;;6277607;22;20008;-68
2022/03/16 14:09:44;;;;;;;35.85;26.80;;;;;;;;;;6277256;22;20019;-66
2022/03/16 14:12:13;;;;;;;37.25;28.42;;;;;;;;;;6277170;22;20033;-66
2022/03/16 14:14:39;;;;;;;56.47;42.72;;;;;;;;;;6277005;22;20331;-66
2022/03/16 14:17:05;;;;;;;60.20;47.45;;;;;;;;;;6276757;22;20049;-65
2022/03/16 14:19:36;;;;;;;57.85;48.28;;;;;;;;;;6277236;22;20431;-66
2022/03/16 14:22:03;;;;;;;58.38;47.85;;;;;;;;;;6277385;22;20049;-68
2022/03/16 14:24:29;;;;;;;61.45;47.55;;;;;;;;;;6277458;22;20007;-67
2022/03/16 14:26:55;;;;;;;57.97;47.92;;;;;;;;;;6277050;22;19999;-66
2022/03/16 14:29:22;;;;;;;59.40;48.78;;;;;;;;;;6277091;22;20260;-66
2022/03/16 14:31:49;;;;;;;64.00;49.20;;;;;;;;;;6277189;22;19996;-66
2022/03/16 14:34:16;;;;;;;58.33;47.15;;;;;;;;;;6277207;22;20127;-66
2022/03/16 14:36:42;;;;;;;65.32;52.17;;;;;;;;;;6277072;22;20006;-66
2022/03/16 14:39:08;;;;;;;74.85;55.92;;;;;;;;;;6276792;22;19999;-65
2022/03/16 14:41:34;;;;;;;77.38;61.50;;;;;;;;;;6276834;22;20022;-68